createdAt,value
2023-10-06T00:00:59.924Z,8.40
2023-10-06T00:03:27.890Z,8.40
2023-10-06T00:05:57.487Z,8.40
2023-10-06T00:08:34.220Z,8.40
2023-10-06T00:11:12.581Z,8.30
2023-10-06T00:13:40.995Z,8.40
2023-10-06T00:16:10.658Z,8.40
2023-10-06T00:18:40.584Z,8.40
2023-10-06T00:21:15.830Z,8.30
2023-10-06T00:23:48.677Z,8.30
2023-10-06T00:26:18.403Z,8.20
2023-10-06T00:28:46.974Z,8.20
2023-10-06T00:31:16.525Z,8.20
2023-10-06T00:33:46.219Z,8.20
2023-10-06T00:36:18.432Z,8.20
2023-10-06T00:38:51.717Z,8.20
2023-10-06T00:41:21.937Z,8.20
2023-10-06T00:43:51.186Z,8.20
2023-10-06T00:46:20.807Z,8.20
2023-10-06T00:48:54.457Z,8.20
2023-10-06T00:51:24.313Z,8.00
2023-10-06T00:53:52.794Z,7.90
2023-10-06T00:56:24.725Z,7.90
2023-10-06T00:58:53.235Z,8.00
2023-10-06T01:01:23.753Z,8.00
2023-10-06T01:04:02.109Z,8.10
2023-10-06T01:06:36.811Z,8.00
2023-10-06T01:09:10.428Z,8.00
2023-10-06T01:11:44.365Z,8.00
2023-10-06T01:14:12.270Z,8.00
2023-10-06T01:16:44.084Z,8.00
2023-10-06T01:19:27.342Z,8.00
2023-10-06T01:21:56.717Z,7.90
2023-10-06T01:24:27.029Z,7.90
2023-10-06T01:26:58.140Z,7.80
2023-10-06T01:29:30.659Z,7.70
2023-10-06T01:31:59.044Z,7.60
2023-10-06T01:34:28.651Z,7.50
2023-10-06T01:36:57.270Z,7.50
2023-10-06T01:39:30.667Z,7.50
2023-10-06T01:41:58.638Z,7.60
2023-10-06T01:44:28.516Z,7.60
2023-10-06T01:46:56.463Z,7.50
2023-10-06T01:49:24.448Z,7.50
2023-10-06T01:52:02.930Z,7.50
2023-10-06T01:54:38.488Z,7.50
2023-10-06T01:57:07.824Z,7.50
2023-10-06T01:59:36.693Z,7.40
2023-10-06T02:02:09.337Z,7.50
2023-10-06T02:04:46.173Z,7.40
2023-10-06T02:07:14.382Z,7.30
2023-10-06T02:09:44.434Z,7.30
2023-10-06T02:12:13.985Z,7.20
2023-10-06T02:14:42.206Z,7.20
2023-10-06T02:17:13.023Z,7.30
2023-10-06T02:19:43.816Z,7.40
2023-10-06T02:22:12.253Z,7.40
2023-10-06T02:24:40.620Z,7.30
2023-10-06T02:27:11.542Z,7.30
2023-10-06T02:29:39.547Z,7.20
2023-10-06T02:32:08.951Z,7.20
2023-10-06T02:34:39.421Z,7.20
2023-10-06T02:37:08.697Z,7.20
2023-10-06T02:39:39.352Z,7.10
2023-10-06T02:42:10.719Z,7.20
2023-10-06T02:44:42.196Z,7.20
2023-10-06T02:47:12.019Z,7.40
2023-10-06T02:49:42.438Z,7.40
2023-10-06T02:52:21.705Z,7.30
2023-10-06T02:54:59.610Z,7.20
2023-10-06T02:57:35.902Z,7.10
2023-10-06T03:00:27.567Z,7.10
2023-10-06T03:02:57.478Z,7.10
2023-10-06T03:05:33.127Z,7.10
2023-10-06T03:08:02.701Z,7.00
2023-10-06T03:10:36.990Z,6.90
2023-10-06T03:13:09.759Z,6.90
2023-10-06T03:15:43.947Z,6.90
2023-10-06T03:18:13.950Z,6.90
2023-10-06T03:20:48.062Z,6.80
2023-10-06T03:23:27.980Z,6.90
2023-10-06T03:25:57.529Z,6.90
2023-10-06T03:28:32.513Z,6.90
2023-10-06T03:31:04.279Z,6.80
2023-10-06T03:33:33.021Z,6.80
2023-10-06T03:36:01.300Z,6.80
2023-10-06T03:38:38.201Z,6.80
2023-10-06T03:41:20.055Z,6.70
2023-10-06T03:43:54.302Z,6.60
2023-10-06T03:46:23.324Z,6.50
2023-10-06T03:48:52.016Z,6.50
2023-10-06T03:51:20.274Z,6.60
2023-10-06T03:53:49.890Z,6.50
2023-10-06T03:56:18.817Z,6.50
2023-10-06T03:58:47.570Z,6.70
2023-10-06T04:01:21.615Z,6.70
2023-10-06T04:03:49.631Z,6.80
2023-10-06T04:06:17.629Z,6.80
2023-10-06T04:08:47.528Z,6.90
2023-10-06T04:11:15.965Z,6.90
2023-10-06T04:13:44.715Z,6.80
2023-10-06T04:16:14.787Z,6.70
2023-10-06T04:18:48.979Z,6.70
2023-10-06T04:21:17.855Z,6.70
2023-10-06T04:23:45.862Z,6.70
2023-10-06T04:26:16.581Z,6.70
2023-10-06T04:28:48.224Z,6.70
2023-10-06T04:31:17.560Z,6.70
2023-10-06T04:33:47.060Z,6.70
2023-10-06T04:36:22.148Z,6.60
2023-10-06T04:38:51.047Z,6.50
2023-10-06T04:41:21.550Z,6.50
2023-10-06T04:43:49.897Z,6.50
2023-10-06T04:46:17.965Z,6.50
2023-10-06T04:48:49.160Z,6.40
2023-10-06T04:51:17.210Z,6.30
2023-10-06T04:53:47.630Z,6.30
2023-10-06T04:56:15.649Z,6.20
2023-10-06T04:58:43.919Z,6.30
2023-10-06T05:01:13.332Z,6.30
2023-10-06T05:03:45.667Z,6.30
2023-10-06T05:06:17.601Z,6.40
2023-10-06T05:08:48.141Z,6.40
2023-10-06T05:11:16.377Z,6.40
2023-10-06T05:13:44.416Z,6.30
2023-10-06T05:16:13.001Z,6.20
2023-10-06T05:18:41.548Z,6.20
2023-10-06T05:21:10.027Z,6.20
2023-10-06T05:23:39.292Z,6.20
2023-10-06T05:26:09.663Z,6.20
2023-10-06T05:28:38.459Z,6.30
2023-10-06T05:31:08.672Z,6.30
2023-10-06T05:33:36.680Z,6.40
2023-10-06T05:36:11.940Z,6.30
2023-10-06T05:38:41.694Z,6.20
2023-10-06T05:41:13.360Z,6.10
2023-10-06T05:43:42.415Z,6.10
2023-10-06T05:46:11.370Z,6.10
2023-10-06T05:48:39.806Z,6.10
2023-10-06T05:51:11.001Z,6.10
2023-10-06T05:53:44.387Z,6.10
2023-10-06T05:56:17.005Z,6.20
2023-10-06T05:58:45.400Z,6.20
2023-10-06T06:01:14.920Z,6.30
2023-10-06T06:03:47.973Z,6.40
2023-10-06T06:06:17.762Z,6.50
2023-10-06T06:08:49.743Z,6.60
2023-10-06T06:11:18.407Z,6.60
2023-10-06T06:13:55.513Z,6.70
2023-10-06T06:16:24.058Z,6.70
2023-10-06T06:18:52.125Z,6.80
2023-10-06T06:21:25.892Z,6.80
2023-10-06T06:23:58.448Z,6.90
2023-10-06T06:26:26.880Z,7.10
2023-10-06T06:28:55.103Z,7.10
2023-10-06T06:31:23.361Z,7.10
2023-10-06T06:33:57.931Z,7.10
2023-10-06T06:36:26.843Z,7.30
2023-10-06T06:38:56.512Z,7.40
2023-10-06T06:41:24.502Z,7.50
2023-10-06T06:43:59.219Z,7.60
2023-10-06T06:46:31.034Z,7.70
2023-10-06T06:49:01.356Z,7.80
2023-10-06T06:51:32.353Z,7.80
2023-10-06T06:54:01.993Z,7.90
2023-10-06T06:56:31.395Z,8.00
2023-10-06T06:59:01.046Z,8.10
2023-10-06T07:01:29.992Z,8.30
2023-10-06T07:04:01.967Z,8.40
2023-10-06T07:06:32.355Z,8.50
2023-10-06T07:09:03.152Z,8.70
2023-10-06T07:11:31.147Z,8.80
2023-10-06T07:13:59.240Z,9.00
2023-10-06T07:16:27.357Z,9.20
2023-10-06T07:18:55.648Z,9.40
2023-10-06T07:21:24.797Z,9.60
2023-10-06T07:23:55.909Z,9.70
2023-10-06T07:26:25.311Z,9.90
2023-10-06T07:28:54.406Z,10.10
2023-10-06T07:31:22.752Z,10.20
2023-10-06T07:33:53.129Z,10.40
2023-10-06T07:36:21.560Z,10.60
2023-10-06T07:38:50.396Z,10.80
2023-10-06T07:41:21.516Z,11.10
2023-10-06T07:43:50.971Z,11.30
2023-10-06T07:46:19.403Z,11.50
2023-10-06T07:48:48.184Z,11.80
2023-10-06T07:51:17.512Z,12.10
2023-10-06T07:53:45.867Z,12.30
2023-10-06T07:56:15.696Z,12.60
2023-10-06T07:58:44.826Z,12.80
2023-10-06T08:01:15.170Z,13.10
2023-10-06T08:03:44.432Z,13.40
2023-10-06T08:06:15.049Z,13.60
2023-10-06T08:08:43.187Z,13.90
2023-10-06T08:11:14.313Z,14.10
2023-10-06T08:13:43.285Z,14.40
2023-10-06T08:16:13.311Z,14.60
2023-10-06T08:18:43.694Z,14.80
2023-10-06T08:21:12.354Z,14.90
2023-10-06T08:23:40.416Z,15.10
2023-10-06T08:26:10.336Z,15.20
2023-10-06T08:28:38.504Z,15.10
2023-10-06T08:31:06.525Z,15.10
2023-10-06T08:33:39.168Z,15.20
2023-10-06T08:36:11.840Z,15.50
2023-10-06T08:38:41.845Z,15.70
2023-10-06T08:41:10.498Z,16.10
2023-10-06T08:43:40.686Z,16.50
2023-10-06T08:46:09.581Z,16.80
2023-10-06T08:48:39.926Z,17.10
2023-10-06T08:51:15.703Z,17.20
2023-10-06T08:53:47.025Z,17.20
2023-10-06T08:56:16.535Z,17.20
2023-10-06T08:58:45.458Z,17.30
2023-10-06T09:01:15.337Z,17.10
2023-10-06T09:03:43.454Z,17.20
2023-10-06T09:06:13.646Z,17.30
2023-10-06T09:08:42.741Z,17.40
2023-10-06T09:11:11.868Z,17.40
2023-10-06T09:13:40.247Z,17.30
2023-10-06T09:16:09.166Z,17.20
2023-10-06T09:18:40.456Z,17.10
2023-10-06T09:21:20.801Z,17.10
2023-10-06T09:23:50.381Z,17.10
2023-10-06T09:26:29.204Z,17.20
2023-10-06T09:29:00.844Z,17.10
2023-10-06T09:31:42.390Z,17.30
2023-10-06T09:34:11.752Z,17.20
2023-10-06T09:39:34.322Z,17.30
2023-10-06T09:42:07.112Z,17.20
2023-10-06T09:44:37.484Z,17.10
2023-10-06T09:47:09.703Z,17.00
2023-10-06T09:49:39.262Z,17.10
2023-10-06T09:52:10.177Z,17.00
2023-10-06T09:54:39.714Z,16.90
2023-10-06T09:57:08.492Z,16.90
2023-10-06T09:59:39.334Z,16.80
2023-10-06T10:02:07.791Z,16.80
2023-10-06T10:04:36.352Z,16.80
2023-10-06T10:07:05.216Z,16.90
2023-10-06T10:09:36.851Z,17.00
2023-10-06T10:12:18.579Z,17.00
2023-10-06T10:15:01.877Z,17.10
2023-10-06T10:17:39.592Z,17.00
2023-10-06T10:20:10.623Z,16.90
2023-10-06T10:22:41.756Z,16.90
2023-10-06T10:25:24.086Z,17.00
2023-10-06T10:28:15.679Z,17.20
2023-10-06T10:30:54.907Z,17.20
2023-10-06T10:33:23.398Z,17.20
2023-10-06T10:36:23.255Z,17.30
2023-10-06T10:39:06.022Z,17.20
2023-10-06T10:41:38.643Z,17.30
2023-10-06T10:44:24.918Z,17.30
2023-10-06T10:46:57.315Z,17.50
2023-10-06T10:49:25.511Z,17.60
2023-10-06T10:51:56.393Z,17.60
2023-10-06T10:54:24.969Z,17.70
2023-10-06T10:56:54.700Z,17.90
2023-10-06T10:59:23.711Z,18.00
2023-10-06T11:01:54.381Z,18.10
2023-10-06T11:04:37.721Z,18.20
2023-10-06T11:07:13.379Z,18.40
2023-10-06T11:09:49.711Z,18.60
2023-10-06T11:12:25.913Z,18.60
2023-10-06T11:14:56.677Z,18.60
2023-10-06T11:17:26.062Z,18.60
2023-10-06T11:20:13.408Z,18.70
2023-10-06T11:22:42.937Z,18.80
2023-10-06T11:25:11.913Z,18.90
2023-10-06T11:27:42.195Z,19.00
2023-10-06T11:30:13.081Z,19.10
2023-10-06T11:32:41.804Z,19.30
2023-10-06T11:35:12.181Z,19.30
2023-10-06T11:37:40.479Z,19.40
2023-10-06T11:40:10.577Z,19.60
2023-10-06T11:42:42.048Z,19.70
2023-10-06T11:45:25.313Z,20.00
2023-10-06T11:47:54.537Z,20.00
2023-10-06T11:50:27.282Z,20.00
2023-10-06T11:52:56.419Z,20.20
2023-10-06T11:55:36.150Z,20.30
2023-10-06T11:58:07.326Z,20.60
2023-10-06T12:00:38.918Z,20.80
2023-10-06T12:03:08.096Z,20.90
2023-10-06T12:05:37.690Z,21.00
2023-10-06T12:08:09.872Z,21.10
2023-10-06T12:10:49.082Z,21.20
2023-10-06T12:13:17.012Z,21.30
2023-10-06T12:15:46.522Z,21.40
2023-10-06T12:18:15.160Z,21.70
2023-10-06T12:20:43.687Z,22.00
2023-10-06T12:23:12.373Z,22.10
2023-10-06T12:25:40.523Z,22.10
2023-10-06T12:28:08.609Z,22.20
2023-10-06T12:30:36.647Z,22.20
2023-10-06T12:33:07.400Z,22.50
2023-10-06T12:35:38.072Z,22.70
2023-10-06T12:38:07.932Z,22.70
2023-10-06T12:40:36.057Z,22.80
2023-10-06T12:43:04.426Z,22.80
2023-10-06T12:45:32.518Z,22.80
2023-10-06T12:48:03.385Z,23.30
2023-10-06T12:50:41.684Z,23.50
2023-10-06T12:53:11.400Z,23.60
2023-10-06T12:55:42.825Z,23.80
2023-10-06T12:58:16.063Z,23.90
2023-10-06T13:00:44.520Z,24.00
2023-10-06T13:03:17.479Z,24.20
2023-10-06T13:05:48.285Z,23.90
2023-10-06T13:08:18.443Z,23.60
2023-10-06T13:10:48.078Z,23.50
2023-10-06T13:13:19.937Z,23.80
2023-10-06T13:15:48.143Z,24.00
2023-10-06T13:18:18.473Z,24.10
2023-10-06T13:20:48.232Z,23.60
2023-10-06T13:23:16.358Z,23.30
2023-10-06T13:25:47.234Z,23.20
2023-10-06T13:28:19.282Z,22.90
2023-10-06T13:30:48.192Z,22.50
2023-10-06T13:33:16.633Z,22.30
2023-10-06T13:35:45.592Z,22.30
2023-10-06T13:38:14.933Z,22.20
2023-10-06T13:40:46.405Z,21.90
2023-10-06T13:43:14.747Z,21.50
2023-10-06T13:45:46.190Z,21.40
2023-10-06T13:48:16.942Z,21.30
2023-10-06T13:50:47.147Z,21.30
2023-10-06T13:53:17.207Z,21.10
2023-10-06T13:55:46.657Z,21.00
2023-10-06T13:58:14.881Z,20.90
2023-10-06T14:00:43.335Z,20.70
2023-10-06T14:03:15.102Z,20.60
2023-10-06T14:05:44.959Z,20.70
2023-10-06T14:08:15.804Z,20.80
2023-10-06T14:10:46.326Z,20.90
2023-10-06T14:16:11.199Z,20.80
2023-10-06T14:18:41.372Z,20.80
2023-10-06T14:21:11.137Z,20.80
2023-10-06T14:23:44.933Z,20.70
2023-10-06T14:26:14.654Z,20.40
2023-10-06T14:28:43.177Z,20.30
2023-10-06T14:31:17.947Z,20.20
2023-10-06T14:33:48.955Z,20.10
2023-10-06T14:36:25.820Z,20.00
2023-10-06T14:39:11.519Z,20.00
2023-10-06T14:41:58.186Z,20.00
2023-10-06T14:44:44.075Z,20.00
2023-10-06T14:47:12.035Z,20.00
2023-10-06T14:49:45.440Z,19.90
2023-10-06T14:52:14.728Z,19.90
2023-10-06T14:54:44.908Z,19.90
2023-10-06T14:57:14.627Z,19.90
2023-10-06T14:59:45.322Z,19.80
2023-10-06T15:02:13.491Z,19.80
2023-10-06T15:04:41.906Z,19.80
2023-10-06T15:07:12.440Z,19.80
2023-10-06T15:09:41.299Z,19.80
2023-10-06T15:12:09.635Z,19.80
2023-10-06T15:14:40.346Z,19.80
2023-10-06T15:17:12.497Z,19.70
2023-10-06T15:19:40.693Z,19.70
2023-10-06T15:22:10.117Z,19.70
2023-10-06T15:24:41.069Z,19.70
2023-10-06T15:27:09.274Z,19.60
2023-10-06T15:29:39.473Z,19.60
2023-10-06T15:32:07.991Z,19.60
2023-10-06T15:34:37.347Z,19.50
2023-10-06T15:37:06.472Z,19.40
2023-10-06T15:39:34.378Z,19.30
2023-10-06T15:42:02.452Z,19.20
2023-10-06T15:44:30.484Z,19.10
2023-10-06T15:46:59.910Z,19.00
2023-10-06T15:49:28.857Z,18.90
2023-10-06T15:51:57.842Z,18.90
2023-10-06T15:54:26.921Z,18.90
2023-10-06T15:56:55.038Z,18.80
2023-10-06T15:59:25.809Z,18.70
2023-10-06T16:01:55.589Z,18.70
2023-10-06T16:04:27.676Z,18.70
2023-10-06T16:06:59.088Z,18.70
2023-10-06T16:09:27.469Z,18.60
2023-10-06T16:11:55.796Z,18.50
2023-10-06T16:14:23.810Z,18.40
2023-10-06T16:16:53.281Z,18.40
2023-10-06T16:19:21.676Z,18.40
2023-10-06T16:21:53.180Z,18.30
2023-10-06T16:24:21.394Z,18.30
2023-10-06T16:26:49.417Z,18.20
2023-10-06T16:29:17.539Z,18.10
2023-10-06T16:31:46.727Z,17.90
2023-10-06T16:34:14.880Z,17.80
2023-10-06T16:36:43.463Z,17.60
2023-10-06T16:39:22.318Z,17.40
2023-10-06T16:41:50.587Z,17.30
2023-10-06T16:44:21.317Z,17.10
2023-10-06T16:46:50.159Z,17.00
2023-10-06T16:49:18.472Z,16.90
2023-10-06T16:51:47.499Z,16.80
2023-10-06T16:54:16.862Z,16.60
2023-10-06T16:56:45.058Z,16.50
2023-10-06T16:59:14.410Z,16.30
2023-10-06T17:01:44.426Z,16.30
2023-10-06T17:04:16.159Z,16.10
2023-10-06T17:06:46.658Z,15.90
2023-10-06T17:09:19.808Z,15.70
2023-10-06T17:11:49.098Z,15.60
2023-10-06T17:14:17.487Z,15.60
2023-10-06T17:16:46.213Z,15.50
2023-10-06T17:19:14.805Z,15.40
2023-10-06T17:21:45.186Z,15.40
2023-10-06T17:24:13.704Z,15.40
2023-10-06T17:26:46.260Z,15.30
2023-10-06T17:29:14.508Z,15.30
2023-10-06T17:31:47.464Z,15.40
2023-10-06T17:34:18.831Z,15.40
2023-10-06T17:36:46.927Z,15.40
2023-10-06T17:39:14.894Z,15.30
2023-10-06T17:41:44.215Z,15.30
2023-10-06T17:44:12.661Z,15.30
2023-10-06T17:46:40.584Z,15.20
2023-10-06T17:49:09.775Z,15.20
2023-10-06T17:51:38.159Z,15.10
2023-10-06T17:54:06.860Z,15.10
2023-10-06T17:56:35.514Z,15.10
2023-10-06T17:59:06.891Z,15.00
2023-10-06T18:01:35.241Z,15.00
2023-10-06T18:04:03.519Z,14.90
2023-10-06T18:06:31.731Z,14.90
2023-10-06T18:08:59.745Z,14.90
2023-10-06T18:11:27.728Z,14.80
2023-10-06T18:13:58.595Z,14.80
2023-10-06T18:16:27.962Z,14.80
2023-10-06T18:18:58.360Z,14.80
2023-10-06T18:21:26.288Z,14.70
2023-10-06T18:23:57.701Z,14.70
2023-10-06T18:26:25.607Z,14.50
2023-10-06T18:28:54.495Z,14.40
2023-10-06T18:31:22.563Z,14.30
2023-10-06T18:33:52.482Z,14.20
2023-10-06T18:36:20.426Z,14.00
2023-10-06T18:38:49.664Z,13.80
2023-10-06T18:41:17.559Z,13.70
2023-10-06T18:43:45.644Z,13.50
2023-10-06T18:46:15.546Z,13.40
2023-10-06T18:48:43.848Z,13.30
2023-10-06T18:51:13.113Z,13.20
2023-10-06T18:53:41.286Z,13.10
2023-10-06T18:56:09.208Z,13.10
2023-10-06T18:58:38.323Z,13.10
2023-10-06T19:01:06.671Z,13.00
2023-10-06T19:03:35.570Z,13.10
2023-10-06T19:06:06.262Z,13.10
2023-10-06T19:08:40.579Z,13.10
2023-10-06T19:11:13.325Z,13.10
2023-10-06T19:13:41.543Z,13.20
2023-10-06T19:16:11.188Z,13.30
2023-10-06T19:18:39.882Z,13.50
2023-10-06T19:21:08.076Z,13.60
2023-10-06T19:23:40.712Z,13.70
2023-10-06T19:26:09.795Z,13.60
2023-10-06T19:28:41.686Z,13.60
2023-10-06T19:31:10.284Z,13.50
2023-10-06T19:33:39.375Z,13.60
2023-10-06T19:36:09.389Z,13.60
2023-10-06T19:38:37.355Z,13.70
2023-10-06T19:41:10.642Z,13.70
2023-10-06T19:43:38.622Z,13.70
2023-10-06T19:46:10.833Z,13.80
2023-10-06T19:48:39.869Z,13.90
2023-10-06T19:51:08.292Z,14.00
2023-10-06T19:53:36.528Z,14.00
2023-10-06T19:56:06.569Z,14.10
2023-10-06T19:58:35.340Z,14.10
2023-10-06T20:01:03.465Z,14.10
2023-10-06T20:03:31.496Z,14.00
2023-10-06T20:06:00.602Z,14.00
2023-10-06T20:08:28.590Z,13.90
2023-10-06T20:10:57.397Z,13.80
2023-10-06T20:13:27.910Z,13.70
2023-10-06T20:15:56.003Z,13.60
2023-10-06T20:18:24.070Z,13.70
2023-10-06T20:20:53.476Z,13.70
2023-10-06T20:23:23.260Z,13.80
2023-10-06T20:25:54.252Z,13.80
2023-10-06T20:28:22.904Z,13.70
2023-10-06T20:30:52.886Z,13.70
2023-10-06T20:33:21.266Z,13.70
2023-10-06T20:35:49.260Z,13.70
2023-10-06T20:38:17.628Z,13.60
2023-10-06T20:40:47.529Z,13.50
2023-10-06T20:43:19.810Z,13.50
2023-10-06T20:45:47.972Z,13.50
2023-10-06T20:48:22.658Z,13.40
2023-10-06T20:50:50.646Z,13.40
2023-10-06T20:53:18.491Z,13.40
2023-10-06T20:55:47.473Z,13.40
2023-10-06T20:58:15.780Z,13.40
2023-10-06T21:00:43.745Z,13.40
2023-10-06T21:03:14.974Z,13.40
2023-10-06T21:05:47.311Z,13.40
2023-10-06T21:08:15.848Z,13.40
2023-10-06T21:10:43.977Z,13.30
2023-10-06T21:13:12.338Z,13.30
2023-10-06T21:15:42.047Z,13.30
2023-10-06T21:18:10.198Z,13.20
2023-10-06T21:20:38.231Z,13.20
2023-10-06T21:23:08.638Z,13.20
2023-10-06T21:25:38.635Z,13.30
2023-10-06T21:28:07.676Z,13.20
2023-10-06T21:30:35.841Z,13.20
2023-10-06T21:33:03.896Z,13.10
2023-10-06T21:35:32.756Z,13.00
2023-10-06T21:38:00.706Z,13.00
2023-10-06T21:40:30.050Z,12.90
2023-10-06T21:42:58.946Z,12.80
2023-10-06T21:45:26.896Z,12.80
2023-10-06T21:47:55.837Z,12.80
2023-10-06T21:50:24.453Z,12.80
2023-10-06T21:52:53.035Z,12.70
2023-10-06T21:55:21.011Z,12.60
2023-10-06T21:57:50.736Z,12.60
2023-10-06T22:00:27.457Z,12.50
2023-10-06T22:03:00.189Z,12.50
2023-10-06T22:05:28.292Z,12.40
2023-10-06T22:07:56.358Z,12.30
2023-10-06T22:10:26.137Z,12.20
2023-10-06T22:12:55.474Z,12.20
2023-10-06T22:15:23.552Z,12.10
2023-10-06T22:17:51.484Z,12.00
2023-10-06T22:20:19.525Z,11.90
2023-10-06T22:22:51.591Z,11.90
2023-10-06T22:25:19.916Z,11.80
2023-10-06T22:27:48.013Z,11.70
2023-10-06T22:30:18.951Z,11.70
2023-10-06T22:32:46.991Z,11.60
2023-10-06T22:35:15.044Z,11.40
2023-10-06T22:37:43.060Z,11.40
2023-10-06T22:40:17.610Z,11.30
2023-10-06T22:42:48.673Z,11.20
2023-10-06T22:45:19.988Z,11.10
2023-10-06T22:47:49.987Z,10.90
2023-10-06T22:50:20.227Z,10.80
2023-10-06T22:52:49.568Z,10.70
2023-10-06T22:55:19.522Z,10.60
2023-10-06T22:57:48.139Z,10.60
2023-10-06T23:00:18.422Z,10.50
2023-10-06T23:02:49.277Z,10.50
2023-10-06T23:05:17.477Z,10.40
2023-10-06T23:07:46.528Z,10.40
2023-10-06T23:10:15.545Z,10.30
2023-10-06T23:12:44.629Z,10.20
2023-10-06T23:15:13.225Z,10.10
2023-10-06T23:17:41.835Z,10.10
2023-10-06T23:20:24.048Z,10.00
2023-10-06T23:22:54.318Z,10.10
2023-10-06T23:25:25.105Z,10.30
2023-10-06T23:27:53.939Z,10.50
2023-10-06T23:30:23.524Z,10.60
2023-10-06T23:32:51.634Z,10.80
2023-10-06T23:35:21.055Z,10.90
2023-10-06T23:37:56.060Z,11.00
2023-10-06T23:40:24.653Z,11.00
2023-10-06T23:42:56.363Z,11.00
2023-10-06T23:45:29.976Z,11.10
2023-10-06T23:47:59.027Z,11.10
2023-10-06T23:50:30.037Z,11.10
2023-10-06T23:53:01.928Z,11.20
2023-10-06T23:55:32.948Z,11.20
2023-10-06T23:58:01.745Z,11.10
